sensor_id;sensor_type;location;lat;lon;timestamp;P1;durP1;ratioP1;P2;durP2;ratioP2
10041;SDS011;5061;49.068;12.058;2023-04-05T00:00:29;6.00;;;3.63;;
10041;SDS011;5061;49.068;12.058;2023-04-05T00:03:51;6.80;;;3.47;;
10041;SDS011;5061;49.068;12.058;2023-04-05T00:07:13;4.87;;;3.60;;
10041;SDS011;5061;49.068;12.058;2023-04-05T00:10:34;6.97;;;4.10;;
10041;SDS011;5061;49.068;12.058;2023-04-05T00:13:55;5.33;;;3.80;;
10041;SDS011;5061;49.068;12.058;2023-04-05T00:17:16;5.00;;;3.80;;
10041;SDS011;5061;49.068;12.058;2023-04-05T00:20:37;5.57;;;3.67;;
10041;SDS011;5061;49.068;12.058;2023-04-05T00:23:57;4.57;;;3.57;;
10041;SDS011;5061;49.068;12.058;2023-04-05T00:27:18;4.07;;;3.23;;
10041;SDS011;5061;49.068;12.058;2023-04-05T00:30:39;4.07;;;2.90;;
10041;SDS011;5061;49.068;12.058;2023-04-05T00:34:00;5.10;;;3.20;;
10041;SDS011;5061;49.068;12.058;2023-04-05T00:37:20;4.83;;;3.23;;
10041;SDS011;5061;49.068;12.058;2023-04-05T00:40:41;3.97;;;2.77;;
10041;SDS011;5061;49.068;12.058;2023-04-05T00:44:02;3.30;;;2.33;;
10041;SDS011;5061;49.068;12.058;2023-04-05T00:47:23;4.53;;;3.20;;
10041;SDS011;5061;49.068;12.058;2023-04-05T00:50:43;3.27;;;2.73;;
10041;SDS011;5061;49.068;12.058;2023-04-05T00:54:07;3.83;;;2.80;;
10041;SDS011;5061;49.068;12.058;2023-04-05T00:57:28;4.77;;;2.80;;
10041;SDS011;5061;49.068;12.058;2023-04-05T01:04:53;7.83;;;3.27;;
10041;SDS011;5061;49.068;12.058;2023-04-05T01:11:55;2.83;;;2.30;;
10041;SDS011;5061;49.068;12.058;2023-04-05T01:15:17;5.63;;;2.80;;
10041;SDS011;5061;49.068;12.058;2023-04-05T01:18:38;3.70;;;2.63;;
10041;SDS011;5061;49.068;12.058;2023-04-05T01:26:30;6.27;;;3.00;;
10041;SDS011;5061;49.068;12.058;2023-04-05T01:37:18;2.77;;;2.40;;
10041;SDS011;5061;49.068;12.058;2023-04-05T01:40:41;3.77;;;2.67;;
10041;SDS011;5061;49.068;12.058;2023-04-05T01:44:02;3.73;;;2.50;;
10041;SDS011;5061;49.068;12.058;2023-04-05T01:47:23;3.93;;;2.27;;
10041;SDS011;5061;49.068;12.058;2023-04-05T01:50:44;5.70;;;2.33;;
10041;SDS011;5061;49.068;12.058;2023-04-05T01:54:04;4.83;;;2.80;;
10041;SDS011;5061;49.068;12.058;2023-04-05T01:57:25;3.23;;;2.47;;
10041;SDS011;5061;49.068;12.058;2023-04-05T02:00:45;2.63;;;2.30;;
10041;SDS011;5061;49.068;12.058;2023-04-05T02:04:06;4.77;;;3.33;;
10041;SDS011;5061;49.068;12.058;2023-04-05T02:07:27;3.90;;;2.87;;
10041;SDS011;5061;49.068;12.058;2023-04-05T02:10:47;4.33;;;3.00;;
10041;SDS011;5061;49.068;12.058;2023-04-05T02:14:08;4.37;;;3.07;;
10041;SDS011;5061;49.068;12.058;2023-04-05T02:17:29;4.00;;;2.80;;
10041;SDS011;5061;49.068;12.058;2023-04-05T02:20:52;4.70;;;2.67;;
10041;SDS011;5061;49.068;12.058;2023-04-05T02:24:20;3.30;;;2.40;;
10041;SDS011;5061;49.068;12.058;2023-04-05T02:27:40;3.33;;;2.40;;
10041;SDS011;5061;49.068;12.058;2023-04-05T02:31:01;3.50;;;2.47;;
10041;SDS011;5061;49.068;12.058;2023-04-05T02:34:27;3.17;;;2.23;;
10041;SDS011;5061;49.068;12.058;2023-04-05T02:37:47;2.10;;;1.90;;
10041;SDS011;5061;49.068;12.058;2023-04-05T02:41:08;3.60;;;2.43;;
10041;SDS011;5061;49.068;12.058;2023-04-05T02:44:30;3.33;;;2.40;;
10041;SDS011;5061;49.068;12.058;2023-04-05T02:47:51;3.10;;;2.43;;
10041;SDS011;5061;49.068;12.058;2023-04-05T02:51:11;5.53;;;3.23;;
10041;SDS011;5061;49.068;12.058;2023-04-05T02:54:32;3.23;;;2.87;;
10041;SDS011;5061;49.068;12.058;2023-04-05T02:57:56;4.10;;;2.87;;
10041;SDS011;5061;49.068;12.058;2023-04-05T03:01:19;4.17;;;3.00;;
10041;SDS011;5061;49.068;12.058;2023-04-05T03:04:41;3.73;;;2.80;;
10041;SDS011;5061;49.068;12.058;2023-04-05T03:08:03;4.03;;;2.80;;
10041;SDS011;5061;49.068;12.058;2023-04-05T03:11:24;4.43;;;3.10;;
10041;SDS011;5061;49.068;12.058;2023-04-05T03:14:45;3.70;;;2.87;;
10041;SDS011;5061;49.068;12.058;2023-04-05T03:18:05;4.13;;;2.60;;
10041;SDS011;5061;49.068;12.058;2023-04-05T03:21:26;5.60;;;2.60;;
10041;SDS011;5061;49.068;12.058;2023-04-05T03:24:48;6.03;;;2.93;;
10041;SDS011;5061;49.068;12.058;2023-04-05T03:28:09;4.13;;;2.53;;
10041;SDS011;5061;49.068;12.058;2023-04-05T03:31:31;4.60;;;2.93;;
10041;SDS011;5061;49.068;12.058;2023-04-05T03:34:51;6.83;;;2.90;;
10041;SDS011;5061;49.068;12.058;2023-04-05T03:38:12;5.63;;;2.57;;
10041;SDS011;5061;49.068;12.058;2023-04-05T03:41:33;6.70;;;2.53;;
10041;SDS011;5061;49.068;12.058;2023-04-05T03:44:54;5.03;;;2.13;;
10041;SDS011;5061;49.068;12.058;2023-04-05T03:48:15;4.83;;;2.87;;
10041;SDS011;5061;49.068;12.058;2023-04-05T03:51:39;4.23;;;2.63;;
10041;SDS011;5061;49.068;12.058;2023-04-05T03:55:00;4.00;;;2.70;;
10041;SDS011;5061;49.068;12.058;2023-04-05T03:58:20;3.37;;;2.63;;
10041;SDS011;5061;49.068;12.058;2023-04-05T04:01:41;4.30;;;2.83;;
10041;SDS011;5061;49.068;12.058;2023-04-05T04:05:03;2.97;;;2.30;;
10041;SDS011;5061;49.068;12.058;2023-04-05T04:08:25;3.63;;;2.87;;
10041;SDS011;5061;49.068;12.058;2023-04-05T04:11:46;3.80;;;2.80;;
10041;SDS011;5061;49.068;12.058;2023-04-05T04:15:06;4.43;;;2.47;;
10041;SDS011;5061;49.068;12.058;2023-04-05T04:18:27;3.53;;;2.20;;
10041;SDS011;5061;49.068;12.058;2023-04-05T04:21:48;2.30;;;2.03;;
10041;SDS011;5061;49.068;12.058;2023-04-05T04:25:11;4.60;;;2.50;;
10041;SDS011;5061;49.068;12.058;2023-04-05T04:28:35;3.10;;;2.40;;
10041;SDS011;5061;49.068;12.058;2023-04-05T04:31:58;2.87;;;2.00;;
10041;SDS011;5061;49.068;12.058;2023-04-05T04:38:43;3.73;;;2.30;;
10041;SDS011;5061;49.068;12.058;2023-04-05T04:42:04;3.10;;;2.27;;
10041;SDS011;5061;49.068;12.058;2023-04-05T04:45:24;3.33;;;2.50;;
10041;SDS011;5061;49.068;12.058;2023-04-05T04:48:45;3.63;;;2.63;;
10041;SDS011;5061;49.068;12.058;2023-04-05T04:52:06;4.90;;;2.87;;
10041;SDS011;5061;49.068;12.058;2023-04-05T04:55:27;3.23;;;2.30;;
10041;SDS011;5061;49.068;12.058;2023-04-05T04:58:48;4.50;;;2.60;;
10041;SDS011;5061;49.068;12.058;2023-04-05T05:02:08;5.30;;;2.83;;
10041;SDS011;5061;49.068;12.058;2023-04-05T05:05:30;3.80;;;2.43;;
10041;SDS011;5061;49.068;12.058;2023-04-05T05:08:50;4.63;;;2.90;;
10041;SDS011;5061;49.068;12.058;2023-04-05T05:12:11;5.93;;;3.33;;
10041;SDS011;5061;49.068;12.058;2023-04-05T05:15:31;6.47;;;3.00;;
10041;SDS011;5061;49.068;12.058;2023-04-05T05:18:52;5.30;;;2.90;;
10041;SDS011;5061;49.068;12.058;2023-04-05T05:22:14;6.03;;;2.77;;
10041;SDS011;5061;49.068;12.058;2023-04-05T05:25:35;7.87;;;4.27;;
10041;SDS011;5061;49.068;12.058;2023-04-05T05:28:59;5.73;;;3.13;;
10041;SDS011;5061;49.068;12.058;2023-04-05T05:32:20;3.33;;;2.40;;
10041;SDS011;5061;49.068;12.058;2023-04-05T05:35:42;6.47;;;3.77;;
10041;SDS011;5061;49.068;12.058;2023-04-05T05:39:02;4.83;;;2.90;;
10041;SDS011;5061;49.068;12.058;2023-04-05T05:42:25;4.30;;;3.27;;
10041;SDS011;5061;49.068;12.058;2023-04-05T05:45:46;6.93;;;2.47;;
10041;SDS011;5061;49.068;12.058;2023-04-05T05:49:08;6.37;;;3.50;;
10041;SDS011;5061;49.068;12.058;2023-04-05T05:52:28;3.70;;;2.70;;
10041;SDS011;5061;49.068;12.058;2023-04-05T05:55:49;6.43;;;3.50;;
10041;SDS011;5061;49.068;12.058;2023-04-05T05:59:10;4.63;;;3.67;;
10041;SDS011;5061;49.068;12.058;2023-04-05T06:02:31;5.57;;;3.77;;
10041;SDS011;5061;49.068;12.058;2023-04-05T06:05:51;9.27;;;4.13;;
10041;SDS011;5061;49.068;12.058;2023-04-05T06:09:13;7.10;;;3.63;;
10041;SDS011;5061;49.068;12.058;2023-04-05T06:12:34;7.40;;;3.90;;
10041;SDS011;5061;49.068;12.058;2023-04-05T06:15:55;6.80;;;3.20;;
10041;SDS011;5061;49.068;12.058;2023-04-05T06:19:16;5.40;;;2.77;;
10041;SDS011;5061;49.068;12.058;2023-04-05T06:22:37;6.60;;;2.87;;
10041;SDS011;5061;49.068;12.058;2023-04-05T06:26:01;4.70;;;3.23;;
10041;SDS011;5061;49.068;12.058;2023-04-05T06:29:21;5.80;;;2.70;;
10041;SDS011;5061;49.068;12.058;2023-04-05T06:32:42;3.90;;;2.67;;
10041;SDS011;5061;49.068;12.058;2023-04-05T06:36:03;7.23;;;3.90;;
10041;SDS011;5061;49.068;12.058;2023-04-05T06:39:24;4.10;;;2.90;;
10041;SDS011;5061;49.068;12.058;2023-04-05T06:42:44;5.47;;;2.93;;
10041;SDS011;5061;49.068;12.058;2023-04-05T06:46:05;5.27;;;2.80;;
10041;SDS011;5061;49.068;12.058;2023-04-05T06:49:30;5.20;;;3.00;;
10041;SDS011;5061;49.068;12.058;2023-04-05T06:52:51;7.37;;;2.53;;
10041;SDS011;5061;49.068;12.058;2023-04-05T06:56:11;4.20;;;2.90;;
10041;SDS011;5061;49.068;12.058;2023-04-05T06:59:32;5.43;;;3.00;;
10041;SDS011;5061;49.068;12.058;2023-04-05T07:02:52;3.60;;;2.53;;
10041;SDS011;5061;49.068;12.058;2023-04-05T07:06:13;3.73;;;2.63;;
10041;SDS011;5061;49.068;12.058;2023-04-05T07:09:34;2.53;;;2.03;;
10041;SDS011;5061;49.068;12.058;2023-04-05T07:12:56;2.97;;;2.30;;
10041;SDS011;5061;49.068;12.058;2023-04-05T07:16:16;3.47;;;2.60;;
10041;SDS011;5061;49.068;12.058;2023-04-05T07:19:38;4.27;;;2.73;;
10041;SDS011;5061;49.068;12.058;2023-04-05T07:22:58;4.33;;;2.50;;
10041;SDS011;5061;49.068;12.058;2023-04-05T07:26:19;3.00;;;2.30;;
10041;SDS011;5061;49.068;12.058;2023-04-05T07:29:41;3.63;;;2.37;;
10041;SDS011;5061;49.068;12.058;2023-04-05T07:33:02;4.20;;;2.37;;
10041;SDS011;5061;49.068;12.058;2023-04-05T07:36:23;2.77;;;2.10;;
10041;SDS011;5061;49.068;12.058;2023-04-05T07:39:46;3.57;;;2.10;;
10041;SDS011;5061;49.068;12.058;2023-04-05T07:43:06;3.00;;;2.10;;
10041;SDS011;5061;49.068;12.058;2023-04-05T07:46:27;4.03;;;2.50;;
10041;SDS011;5061;49.068;12.058;2023-04-05T07:49:48;5.90;;;2.70;;
10041;SDS011;5061;49.068;12.058;2023-04-05T07:53:09;4.37;;;2.20;;
10041;SDS011;5061;49.068;12.058;2023-04-05T07:56:30;3.00;;;2.27;;
10041;SDS011;5061;49.068;12.058;2023-04-05T07:59:52;3.80;;;2.80;;
10041;SDS011;5061;49.068;12.058;2023-04-05T08:03:13;4.87;;;2.57;;
10041;SDS011;5061;49.068;12.058;2023-04-05T08:06:34;3.23;;;2.03;;
10041;SDS011;5061;49.068;12.058;2023-04-05T08:09:55;3.00;;;1.93;;
10041;SDS011;5061;49.068;12.058;2023-04-05T08:13:18;2.73;;;1.90;;
10041;SDS011;5061;49.068;12.058;2023-04-05T08:16:38;2.60;;;1.80;;
10041;SDS011;5061;49.068;12.058;2023-04-05T08:19:59;2.03;;;1.80;;
10041;SDS011;5061;49.068;12.058;2023-04-05T08:23:20;2.20;;;1.80;;
10041;SDS011;5061;49.068;12.058;2023-04-05T08:26:41;2.20;;;1.70;;
10041;SDS011;5061;49.068;12.058;2023-04-05T08:30:03;1.97;;;1.50;;
10041;SDS011;5061;49.068;12.058;2023-04-05T08:33:25;3.47;;;2.20;;
10041;SDS011;5061;49.068;12.058;2023-04-05T08:36:47;3.60;;;2.50;;
10041;SDS011;5061;49.068;12.058;2023-04-05T08:40:08;2.10;;;1.80;;
10041;SDS011;5061;49.068;12.058;2023-04-05T08:47:21;2.03;;;1.77;;
10041;SDS011;5061;49.068;12.058;2023-04-05T08:50:48;3.00;;;2.37;;
10041;SDS011;5061;49.068;12.058;2023-04-05T08:54:12;3.40;;;2.00;;
10041;SDS011;5061;49.068;12.058;2023-04-05T08:57:35;5.03;;;2.30;;
10041;SDS011;5061;49.068;12.058;2023-04-05T09:00:59;3.07;;;2.30;;
10041;SDS011;5061;49.068;12.058;2023-04-05T09:04:21;2.27;;;1.80;;
10041;SDS011;5061;49.068;12.058;2023-04-05T09:07:43;2.50;;;1.77;;
10041;SDS011;5061;49.068;12.058;2023-04-05T09:11:06;2.87;;;2.40;;
10041;SDS011;5061;49.068;12.058;2023-04-05T09:14:27;2.50;;;2.07;;
10041;SDS011;5061;49.068;12.058;2023-04-05T09:17:50;3.00;;;1.90;;
10041;SDS011;5061;49.068;12.058;2023-04-05T09:21:13;4.20;;;1.63;;
10041;SDS011;5061;49.068;12.058;2023-04-05T09:28:00;2.27;;;1.90;;
10041;SDS011;5061;49.068;12.058;2023-04-05T09:31:28;2.60;;;1.83;;
10041;SDS011;5061;49.068;12.058;2023-04-05T09:34:51;2.70;;;2.20;;
10041;SDS011;5061;49.068;12.058;2023-04-05T09:38:12;5.00;;;2.50;;
10041;SDS011;5061;49.068;12.058;2023-04-05T09:41:33;2.73;;;1.77;;
10041;SDS011;5061;49.068;12.058;2023-04-05T09:48:36;3.30;;;2.27;;
10041;SDS011;5061;49.068;12.058;2023-04-05T09:52:15;3.60;;;3.00;;
10041;SDS011;5061;49.068;12.058;2023-04-05T09:55:43;2.17;;;1.90;;
10041;SDS011;5061;49.068;12.058;2023-04-05T09:59:08;2.10;;;1.60;;
10041;SDS011;5061;49.068;12.058;2023-04-05T10:02:38;3.40;;;2.10;;
10041;SDS011;5061;49.068;12.058;2023-04-05T10:05:58;5.10;;;3.20;;
10041;SDS011;5061;49.068;12.058;2023-04-05T10:09:20;2.43;;;1.77;;
10041;SDS011;5061;49.068;12.058;2023-04-05T10:12:41;1.83;;;1.40;;
10041;SDS011;5061;49.068;12.058;2023-04-05T10:16:02;1.40;;;1.30;;
10041;SDS011;5061;49.068;12.058;2023-04-05T10:23:24;1.90;;;1.60;;
10041;SDS011;5061;49.068;12.058;2023-04-05T10:26:54;6.00;;;2.00;;
10041;SDS011;5061;49.068;12.058;2023-04-05T10:30:25;2.63;;;1.80;;
10041;SDS011;5061;49.068;12.058;2023-04-05T10:37:35;2.00;;;1.80;;
10041;SDS011;5061;49.068;12.058;2023-04-05T10:41:18;3.60;;;2.17;;
10041;SDS011;5061;49.068;12.058;2023-04-05T10:44:39;2.07;;;1.50;;
10041;SDS011;5061;49.068;12.058;2023-04-05T10:48:10;2.43;;;1.80;;
10041;SDS011;5061;49.068;12.058;2023-04-05T10:51:34;2.87;;;2.00;;
10041;SDS011;5061;49.068;12.058;2023-04-05T10:54:55;3.20;;;2.17;;
10041;SDS011;5061;49.068;12.058;2023-04-05T10:58:18;2.23;;;1.60;;
10041;SDS011;5061;49.068;12.058;2023-04-05T11:01:40;2.37;;;1.90;;
10041;SDS011;5061;49.068;12.058;2023-04-05T11:05:02;2.40;;;1.93;;
10041;SDS011;5061;49.068;12.058;2023-04-05T11:08:24;1.73;;;1.43;;
10041;SDS011;5061;49.068;12.058;2023-04-05T11:11:45;1.70;;;1.40;;
10041;SDS011;5061;49.068;12.058;2023-04-05T11:18:54;2.60;;;1.80;;
10041;SDS011;5061;49.068;12.058;2023-04-05T11:22:23;5.30;;;2.33;;
10041;SDS011;5061;49.068;12.058;2023-04-05T11:25:50;2.80;;;2.17;;
10041;SDS011;5061;49.068;12.058;2023-04-05T11:29:13;3.40;;;2.20;;
10041;SDS011;5061;49.068;12.058;2023-04-05T11:32:38;2.63;;;1.83;;
10041;SDS011;5061;49.068;12.058;2023-04-05T11:36:02;3.40;;;2.20;;
10041;SDS011;5061;49.068;12.058;2023-04-05T11:39:23;3.83;;;2.37;;
10041;SDS011;5061;49.068;12.058;2023-04-05T11:42:44;2.00;;;1.80;;
10041;SDS011;5061;49.068;12.058;2023-04-05T11:46:04;2.20;;;1.83;;
10041;SDS011;5061;49.068;12.058;2023-04-05T11:49:26;2.80;;;2.03;;
10041;SDS011;5061;49.068;12.058;2023-04-05T11:53:06;3.80;;;2.70;;
10041;SDS011;5061;49.068;12.058;2023-04-05T11:56:28;2.40;;;1.97;;
10041;SDS011;5061;49.068;12.058;2023-04-05T11:59:49;2.73;;;2.40;;
10041;SDS011;5061;49.068;12.058;2023-04-05T12:03:14;2.37;;;2.00;;
10041;SDS011;5061;49.068;12.058;2023-04-05T12:06:36;2.47;;;1.60;;
10041;SDS011;5061;49.068;12.058;2023-04-05T12:10:00;2.20;;;1.80;;
10041;SDS011;5061;49.068;12.058;2023-04-05T12:13:27;2.27;;;1.83;;
10041;SDS011;5061;49.068;12.058;2023-04-05T12:16:49;1.70;;;1.60;;
10041;SDS011;5061;49.068;12.058;2023-04-05T12:20:13;2.10;;;1.83;;
10041;SDS011;5061;49.068;12.058;2023-04-05T12:23:36;2.30;;;1.43;;
10041;SDS011;5061;49.068;12.058;2023-04-05T12:26:57;3.63;;;2.10;;
10041;SDS011;5061;49.068;12.058;2023-04-05T12:30:21;1.60;;;1.50;;
10041;SDS011;5061;49.068;12.058;2023-04-05T12:33:42;2.10;;;1.70;;
10041;SDS011;5061;49.068;12.058;2023-04-05T12:37:03;3.30;;;1.87;;
10041;SDS011;5061;49.068;12.058;2023-04-05T12:40:24;1.60;;;1.47;;
10041;SDS011;5061;49.068;12.058;2023-04-05T12:43:46;1.97;;;1.53;;
10041;SDS011;5061;49.068;12.058;2023-04-05T12:47:07;1.90;;;1.57;;
10041;SDS011;5061;49.068;12.058;2023-04-05T12:50:30;1.80;;;1.60;;
10041;SDS011;5061;49.068;12.058;2023-04-05T12:53:50;2.03;;;1.40;;
10041;SDS011;5061;49.068;12.058;2023-04-05T12:57:15;1.83;;;1.30;;
10041;SDS011;5061;49.068;12.058;2023-04-05T13:00:36;3.43;;;1.63;;
10041;SDS011;5061;49.068;12.058;2023-04-05T13:03:57;3.23;;;2.00;;
10041;SDS011;5061;49.068;12.058;2023-04-05T13:07:20;2.37;;;2.07;;
10041;SDS011;5061;49.068;12.058;2023-04-05T13:10:40;2.77;;;1.90;;
10041;SDS011;5061;49.068;12.058;2023-04-05T13:14:01;2.80;;;1.77;;
10041;SDS011;5061;49.068;12.058;2023-04-05T13:17:22;2.33;;;1.63;;
10041;SDS011;5061;49.068;12.058;2023-04-05T13:20:42;2.43;;;1.60;;
10041;SDS011;5061;49.068;12.058;2023-04-05T13:24:03;3.93;;;1.83;;
10041;SDS011;5061;49.068;12.058;2023-04-05T13:27:24;2.00;;;1.40;;
10041;SDS011;5061;49.068;12.058;2023-04-05T13:30:45;2.30;;;1.80;;
10041;SDS011;5061;49.068;12.058;2023-04-05T13:34:06;1.97;;;1.77;;
10041;SDS011;5061;49.068;12.058;2023-04-05T13:37:27;4.63;;;1.77;;
10041;SDS011;5061;49.068;12.058;2023-04-05T13:40:48;2.10;;;1.70;;
10041;SDS011;5061;49.068;12.058;2023-04-05T13:44:08;3.07;;;1.70;;
10041;SDS011;5061;49.068;12.058;2023-04-05T13:47:29;1.40;;;1.30;;
10041;SDS011;5061;49.068;12.058;2023-04-05T13:50:50;2.93;;;1.50;;
10041;SDS011;5061;49.068;12.058;2023-04-05T13:54:10;2.10;;;1.60;;
10041;SDS011;5061;49.068;12.058;2023-04-05T13:57:31;3.33;;;1.43;;
10041;SDS011;5061;49.068;12.058;2023-04-05T14:00:51;2.80;;;1.60;;
10041;SDS011;5061;49.068;12.058;2023-04-05T14:04:12;1.30;;;1.20;;
10041;SDS011;5061;49.068;12.058;2023-04-05T14:07:34;1.67;;;1.57;;
10041;SDS011;5061;49.068;12.058;2023-04-05T14:10:55;2.43;;;1.30;;
10041;SDS011;5061;49.068;12.058;2023-04-05T14:14:15;1.43;;;1.30;;
10041;SDS011;5061;49.068;12.058;2023-04-05T14:17:36;1.30;;;1.20;;
10041;SDS011;5061;49.068;12.058;2023-04-05T14:20:57;1.57;;;1.17;;
10041;SDS011;5061;49.068;12.058;2023-04-05T14:24:18;2.53;;;1.93;;
10041;SDS011;5061;49.068;12.058;2023-04-05T14:27:38;2.70;;;1.63;;
10041;SDS011;5061;49.068;12.058;2023-04-05T14:31:01;2.33;;;2.00;;
10041;SDS011;5061;49.068;12.058;2023-04-05T14:34:21;4.07;;;1.77;;
10041;SDS011;5061;49.068;12.058;2023-04-05T14:37:42;3.57;;;2.10;;
10041;SDS011;5061;49.068;12.058;2023-04-05T14:41:03;2.00;;;1.60;;
10041;SDS011;5061;49.068;12.058;2023-04-05T14:44:25;1.67;;;1.30;;
10041;SDS011;5061;49.068;12.058;2023-04-05T14:47:46;2.27;;;1.50;;
10041;SDS011;5061;49.068;12.058;2023-04-05T14:51:07;2.00;;;1.73;;
10041;SDS011;5061;49.068;12.058;2023-04-05T14:54:28;1.87;;;1.57;;
10041;SDS011;5061;49.068;12.058;2023-04-05T14:57:48;2.17;;;1.90;;
10041;SDS011;5061;49.068;12.058;2023-04-05T15:01:09;2.63;;;1.63;;
10041;SDS011;5061;49.068;12.058;2023-04-05T15:04:30;1.53;;;1.40;;
10041;SDS011;5061;49.068;12.058;2023-04-05T15:07:51;2.00;;;1.53;;
10041;SDS011;5061;49.068;12.058;2023-04-05T15:11:11;2.80;;;2.00;;
10041;SDS011;5061;49.068;12.058;2023-04-05T15:14:32;2.23;;;1.80;;
10041;SDS011;5061;49.068;12.058;2023-04-05T15:17:53;2.47;;;1.70;;
10041;SDS011;5061;49.068;12.058;2023-04-05T15:21:13;1.83;;;1.50;;
10041;SDS011;5061;49.068;12.058;2023-04-05T15:24:38;2.27;;;1.50;;
10041;SDS011;5061;49.068;12.058;2023-04-05T15:28:01;1.90;;;1.40;;
10041;SDS011;5061;49.068;12.058;2023-04-05T15:31:24;2.13;;;1.30;;
10041;SDS011;5061;49.068;12.058;2023-04-05T15:34:44;2.43;;;1.67;;
10041;SDS011;5061;49.068;12.058;2023-04-05T15:38:05;1.97;;;1.50;;
10041;SDS011;5061;49.068;12.058;2023-04-05T15:41:26;3.23;;;1.47;;
10041;SDS011;5061;49.068;12.058;2023-04-05T15:44:48;1.67;;;1.40;;
10041;SDS011;5061;49.068;12.058;2023-04-05T15:48:09;3.23;;;1.63;;
10041;SDS011;5061;49.068;12.058;2023-04-05T15:51:32;2.27;;;1.70;;
10041;SDS011;5061;49.068;12.058;2023-04-05T15:54:54;3.20;;;2.50;;
10041;SDS011;5061;49.068;12.058;2023-04-05T15:58:15;2.90;;;2.37;;
10041;SDS011;5061;49.068;12.058;2023-04-05T16:01:36;2.53;;;1.90;;
10041;SDS011;5061;49.068;12.058;2023-04-05T16:04:57;2.30;;;1.90;;
10041;SDS011;5061;49.068;12.058;2023-04-05T16:08:18;3.83;;;2.00;;
10041;SDS011;5061;49.068;12.058;2023-04-05T16:11:38;1.83;;;1.50;;
10041;SDS011;5061;49.068;12.058;2023-04-05T16:14:59;3.03;;;1.77;;
10041;SDS011;5061;49.068;12.058;2023-04-05T16:18:20;1.97;;;1.73;;
10041;SDS011;5061;49.068;12.058;2023-04-05T16:21:42;2.60;;;1.70;;
10041;SDS011;5061;49.068;12.058;2023-04-05T16:25:04;3.40;;;2.17;;
10041;SDS011;5061;49.068;12.058;2023-04-05T16:28:25;6.03;;;2.10;;
10041;SDS011;5061;49.068;12.058;2023-04-05T16:31:46;3.00;;;1.80;;
10041;SDS011;5061;49.068;12.058;2023-04-05T16:35:06;2.80;;;2.53;;
10041;SDS011;5061;49.068;12.058;2023-04-05T16:38:27;3.60;;;2.30;;
10041;SDS011;5061;49.068;12.058;2023-04-05T16:41:48;6.23;;;2.77;;
10041;SDS011;5061;49.068;12.058;2023-04-05T16:45:09;3.73;;;2.80;;
10041;SDS011;5061;49.068;12.058;2023-04-05T16:48:30;2.70;;;2.50;;
10041;SDS011;5061;49.068;12.058;2023-04-05T16:51:52;3.30;;;2.03;;
10041;SDS011;5061;49.068;12.058;2023-04-05T16:55:12;2.57;;;2.00;;
10041;SDS011;5061;49.068;12.058;2023-04-05T16:58:33;2.73;;;1.90;;
10041;SDS011;5061;49.068;12.058;2023-04-05T17:01:53;3.50;;;2.30;;
10041;SDS011;5061;49.068;12.058;2023-04-05T17:05:14;2.13;;;1.80;;
10041;SDS011;5061;49.068;12.058;2023-04-05T17:08:35;2.40;;;1.67;;
10041;SDS011;5061;49.068;12.058;2023-04-05T17:11:56;3.20;;;2.33;;
10041;SDS011;5061;49.068;12.058;2023-04-05T17:15:17;3.10;;;2.10;;
10041;SDS011;5061;49.068;12.058;2023-04-05T17:18:37;2.30;;;1.80;;
10041;SDS011;5061;49.068;12.058;2023-04-05T17:21:58;2.20;;;2.00;;
10041;SDS011;5061;49.068;12.058;2023-04-05T17:25:19;3.77;;;2.20;;
10041;SDS011;5061;49.068;12.058;2023-04-05T17:28:39;3.57;;;2.30;;
10041;SDS011;5061;49.068;12.058;2023-04-05T17:32:00;2.57;;;2.20;;
10041;SDS011;5061;49.068;12.058;2023-04-05T17:35:21;4.83;;;2.73;;
10041;SDS011;5061;49.068;12.058;2023-04-05T17:38:41;3.40;;;2.40;;
10041;SDS011;5061;49.068;12.058;2023-04-05T17:42:03;2.73;;;2.40;;
10041;SDS011;5061;49.068;12.058;2023-04-05T17:45:24;2.20;;;2.00;;
10041;SDS011;5061;49.068;12.058;2023-04-05T17:48:44;2.73;;;2.17;;
10041;SDS011;5061;49.068;12.058;2023-04-05T17:52:05;2.93;;;2.03;;
10041;SDS011;5061;49.068;12.058;2023-04-05T17:55:30;3.80;;;2.40;;
10041;SDS011;5061;49.068;12.058;2023-04-05T17:58:52;2.73;;;1.83;;
10041;SDS011;5061;49.068;12.058;2023-04-05T18:02:13;3.07;;;2.17;;
10041;SDS011;5061;49.068;12.058;2023-04-05T18:05:33;3.03;;;2.20;;
10041;SDS011;5061;49.068;12.058;2023-04-05T18:08:54;2.37;;;2.17;;
10041;SDS011;5061;49.068;12.058;2023-04-05T18:12:15;3.80;;;2.70;;
10041;SDS011;5061;49.068;12.058;2023-04-05T18:15:38;3.47;;;3.10;;
10041;SDS011;5061;49.068;12.058;2023-04-05T18:19:00;4.03;;;2.57;;
10041;SDS011;5061;49.068;12.058;2023-04-05T18:22:20;4.20;;;3.00;;
10041;SDS011;5061;49.068;12.058;2023-04-05T18:25:42;3.30;;;2.20;;
10041;SDS011;5061;49.068;12.058;2023-04-05T18:29:03;3.50;;;2.87;;
10041;SDS011;5061;49.068;12.058;2023-04-05T18:32:23;5.80;;;3.10;;
10041;SDS011;5061;49.068;12.058;2023-04-05T18:35:51;4.70;;;3.10;;
10041;SDS011;5061;49.068;12.058;2023-04-05T18:39:11;3.87;;;3.50;;
10041;SDS011;5061;49.068;12.058;2023-04-05T18:42:33;7.00;;;4.20;;
10041;SDS011;5061;49.068;12.058;2023-04-05T18:45:55;6.37;;;3.60;;
10041;SDS011;5061;49.068;12.058;2023-04-05T18:49:16;4.47;;;3.20;;
10041;SDS011;5061;49.068;12.058;2023-04-05T18:52:38;2.57;;;1.93;;
10041;SDS011;5061;49.068;12.058;2023-04-05T18:55:58;3.70;;;2.70;;
10041;SDS011;5061;49.068;12.058;2023-04-05T18:59:19;3.67;;;2.57;;
10041;SDS011;5061;49.068;12.058;2023-04-05T19:02:40;3.40;;;2.60;;
10041;SDS011;5061;49.068;12.058;2023-04-05T19:06:00;4.30;;;3.00;;
10041;SDS011;5061;49.068;12.058;2023-04-05T19:09:21;5.00;;;3.33;;
10041;SDS011;5061;49.068;12.058;2023-04-05T19:12:42;5.20;;;3.67;;
10041;SDS011;5061;49.068;12.058;2023-04-05T19:16:03;4.83;;;3.20;;
10041;SDS011;5061;49.068;12.058;2023-04-05T19:19:23;5.50;;;4.13;;
10041;SDS011;5061;49.068;12.058;2023-04-05T19:22:44;5.00;;;3.63;;
10041;SDS011;5061;49.068;12.058;2023-04-05T19:26:05;5.07;;;3.10;;
10041;SDS011;5061;49.068;12.058;2023-04-05T19:29:26;5.60;;;3.47;;
10041;SDS011;5061;49.068;12.058;2023-04-05T19:32:47;4.40;;;2.90;;
10041;SDS011;5061;49.068;12.058;2023-04-05T19:36:08;4.17;;;2.40;;
10041;SDS011;5061;49.068;12.058;2023-04-05T19:39:28;4.03;;;2.70;;
10041;SDS011;5061;49.068;12.058;2023-04-05T19:42:50;4.80;;;3.00;;
10041;SDS011;5061;49.068;12.058;2023-04-05T19:46:11;5.30;;;2.83;;
10041;SDS011;5061;49.068;12.058;2023-04-05T19:49:36;3.50;;;2.80;;
10041;SDS011;5061;49.068;12.058;2023-04-05T19:52:58;3.03;;;2.63;;
10041;SDS011;5061;49.068;12.058;2023-04-05T19:59:44;3.57;;;2.90;;
10041;SDS011;5061;49.068;12.058;2023-04-05T20:03:47;3.87;;;2.43;;
10041;SDS011;5061;49.068;12.058;2023-04-05T20:06:50;4.07;;;2.00;;
10041;SDS011;5061;49.068;12.058;2023-04-05T20:10:14;3.23;;;2.10;;
10041;SDS011;5061;49.068;12.058;2023-04-05T20:13:55;4.37;;;2.27;;
10041;SDS011;5061;49.068;12.058;2023-04-05T20:17:18;4.50;;;2.60;;
10041;SDS011;5061;49.068;12.058;2023-04-05T20:20:39;3.60;;;2.40;;
10041;SDS011;5061;49.068;12.058;2023-04-05T20:24:03;3.90;;;2.00;;
10041;SDS011;5061;49.068;12.058;2023-04-05T20:27:27;2.67;;;2.13;;
10041;SDS011;5061;49.068;12.058;2023-04-05T20:30:48;3.13;;;2.50;;
10041;SDS011;5061;49.068;12.058;2023-04-05T20:37:33;3.43;;;2.27;;
10041;SDS011;5061;49.068;12.058;2023-04-05T20:40:54;3.20;;;2.10;;
10041;SDS011;5061;49.068;12.058;2023-04-05T20:44:15;3.00;;;2.30;;
10041;SDS011;5061;49.068;12.058;2023-04-05T20:47:36;3.60;;;2.50;;
10041;SDS011;5061;49.068;12.058;2023-04-05T20:50:56;3.10;;;2.30;;
10041;SDS011;5061;49.068;12.058;2023-04-05T20:54:19;3.57;;;2.27;;
10041;SDS011;5061;49.068;12.058;2023-04-05T20:57:40;2.70;;;2.33;;
10041;SDS011;5061;49.068;12.058;2023-04-05T21:01:01;3.67;;;2.47;;
10041;SDS011;5061;49.068;12.058;2023-04-05T21:04:23;3.50;;;2.63;;
10041;SDS011;5061;49.068;12.058;2023-04-05T21:07:43;4.00;;;2.97;;